sensor_id;sensor_type;location;lat;lon;timestamp;temperature;humidity
12568;DHT22;6349;50.904;6.136;2022-07-17T00:00:32;18.30;99.90
12568;DHT22;6349;50.904;6.136;2022-07-17T00:02:33;18.30;99.90
12568;DHT22;6349;50.904;6.136;2022-07-17T00:04:34;18.20;99.90
12568;DHT22;6349;50.904;6.136;2022-07-17T00:06:34;18.20;99.90
12568;DHT22;6349;50.904;6.136;2022-07-17T00:08:35;18.20;99.90
12568;DHT22;6349;50.904;6.136;2022-07-17T00:10:38;18.20;99.90
12568;DHT22;6349;50.904;6.136;2022-07-17T00:12:38;18.10;99.90
12568;DHT22;6349;50.904;6.136;2022-07-17T00:14:39;18.00;99.90
12568;DHT22;6349;50.904;6.136;2022-07-17T00:16:40;18.10;99.90
12568;DHT22;6349;50.904;6.136;2022-07-17T00:18:40;17.90;99.90
12568;DHT22;6349;50.904;6.136;2022-07-17T00:20:41;17.90;99.90
12568;DHT22;6349;50.904;6.136;2022-07-17T00:22:43;17.80;99.90
12568;DHT22;6349;50.904;6.136;2022-07-17T00:24:44;17.80;99.90
12568;DHT22;6349;50.904;6.136;2022-07-17T00:26:46;17.80;99.90
12568;DHT22;6349;50.904;6.136;2022-07-17T00:28:47;17.70;99.90
12568;DHT22;6349;50.904;6.136;2022-07-17T00:30:48;17.70;99.90
12568;DHT22;6349;50.904;6.136;2022-07-17T00:32:48;17.70;99.90
12568;DHT22;6349;50.904;6.136;2022-07-17T00:34:50;17.70;99.90
12568;DHT22;6349;50.904;6.136;2022-07-17T00:36:50;17.60;99.90
12568;DHT22;6349;50.904;6.136;2022-07-17T00:38:51;17.60;99.90
12568;DHT22;6349;50.904;6.136;2022-07-17T00:40:56;17.60;99.90
12568;DHT22;6349;50.904;6.136;2022-07-17T00:42:57;17.60;99.90
12568;DHT22;6349;50.904;6.136;2022-07-17T00:44:58;17.60;99.90
12568;DHT22;6349;50.904;6.136;2022-07-17T00:46:58;17.50;99.90
12568;DHT22;6349;50.904;6.136;2022-07-17T00:48:59;17.50;99.90
12568;DHT22;6349;50.904;6.136;2022-07-17T00:51:00;17.50;99.90
12568;DHT22;6349;50.904;6.136;2022-07-17T00:53:01;17.40;99.90
12568;DHT22;6349;50.904;6.136;2022-07-17T00:55:01;17.30;99.90
12568;DHT22;6349;50.904;6.136;2022-07-17T00:57:05;17.20;99.90
12568;DHT22;6349;50.904;6.136;2022-07-17T00:59:06;17.20;99.90
12568;DHT22;6349;50.904;6.136;2022-07-17T01:01:07;17.20;99.90
12568;DHT22;6349;50.904;6.136;2022-07-17T01:03:08;17.10;99.90
12568;DHT22;6349;50.904;6.136;2022-07-17T01:05:09;17.10;99.90
12568;DHT22;6349;50.904;6.136;2022-07-17T01:07:10;17.10;99.90
12568;DHT22;6349;50.904;6.136;2022-07-17T01:09:11;17.10;99.90
12568;DHT22;6349;50.904;6.136;2022-07-17T01:11:12;17.00;99.90
12568;DHT22;6349;50.904;6.136;2022-07-17T01:13:13;17.00;99.90
12568;DHT22;6349;50.904;6.136;2022-07-17T01:15:15;16.90;99.90
12568;DHT22;6349;50.904;6.136;2022-07-17T01:17:16;17.00;99.90
12568;DHT22;6349;50.904;6.136;2022-07-17T01:19:18;16.90;99.90
12568;DHT22;6349;50.904;6.136;2022-07-17T01:21:18;16.90;99.90
12568;DHT22;6349;50.904;6.136;2022-07-17T01:23:20;16.90;99.90
12568;DHT22;6349;50.904;6.136;2022-07-17T01:25:22;16.80;99.90
12568;DHT22;6349;50.904;6.136;2022-07-17T01:27:23;16.80;99.90
12568;DHT22;6349;50.904;6.136;2022-07-17T01:29:23;16.80;99.90
12568;DHT22;6349;50.904;6.136;2022-07-17T01:31:24;16.80;99.90
12568;DHT22;6349;50.904;6.136;2022-07-17T01:33:25;16.70;99.90
12568;DHT22;6349;50.904;6.136;2022-07-17T01:35:25;16.80;99.90
12568;DHT22;6349;50.904;6.136;2022-07-17T01:37:26;16.70;99.90
12568;DHT22;6349;50.904;6.136;2022-07-17T01:39:26;16.70;99.90
12568;DHT22;6349;50.904;6.136;2022-07-17T01:41:45;16.70;99.90
12568;DHT22;6349;50.904;6.136;2022-07-17T01:43:46;16.60;99.90
12568;DHT22;6349;50.904;6.136;2022-07-17T01:45:46;16.60;99.90
12568;DHT22;6349;50.904;6.136;2022-07-17T01:47:47;16.70;99.90
12568;DHT22;6349;50.904;6.136;2022-07-17T01:49:53;16.70;99.90
12568;DHT22;6349;50.904;6.136;2022-07-17T01:51:54;16.70;99.90
12568;DHT22;6349;50.904;6.136;2022-07-17T01:53:58;16.70;99.90
12568;DHT22;6349;50.904;6.136;2022-07-17T01:55:59;16.70;99.90
12568;DHT22;6349;50.904;6.136;2022-07-17T01:57:59;16.70;99.90
12568;DHT22;6349;50.904;6.136;2022-07-17T02:00:01;16.70;99.90
12568;DHT22;6349;50.904;6.136;2022-07-17T02:02:02;16.70;99.90
12568;DHT22;6349;50.904;6.136;2022-07-17T02:04:02;16.70;99.90
12568;DHT22;6349;50.904;6.136;2022-07-17T02:06:03;16.70;99.90
12568;DHT22;6349;50.904;6.136;2022-07-17T02:08:04;16.60;99.90
12568;DHT22;6349;50.904;6.136;2022-07-17T02:10:05;16.60;99.90
12568;DHT22;6349;50.904;6.136;2022-07-17T02:12:06;16.60;99.90
12568;DHT22;6349;50.904;6.136;2022-07-17T02:14:07;16.50;99.90
12568;DHT22;6349;50.904;6.136;2022-07-17T02:16:08;16.40;99.90
12568;DHT22;6349;50.904;6.136;2022-07-17T02:18:08;16.40;99.90
12568;DHT22;6349;50.904;6.136;2022-07-17T02:20:10;16.40;99.90
12568;DHT22;6349;50.904;6.136;2022-07-17T02:22:11;16.30;99.90
12568;DHT22;6349;50.904;6.136;2022-07-17T02:24:11;16.40;99.90
12568;DHT22;6349;50.904;6.136;2022-07-17T02:26:12;16.30;99.90
12568;DHT22;6349;50.904;6.136;2022-07-17T02:28:12;16.20;99.90
12568;DHT22;6349;50.904;6.136;2022-07-17T02:30:15;16.20;99.90
12568;DHT22;6349;50.904;6.136;2022-07-17T02:32:16;16.10;99.90
12568;DHT22;6349;50.904;6.136;2022-07-17T02:34:16;16.10;99.90
12568;DHT22;6349;50.904;6.136;2022-07-17T02:36:17;16.00;99.90
12568;DHT22;6349;50.904;6.136;2022-07-17T02:38:18;16.10;99.90
12568;DHT22;6349;50.904;6.136;2022-07-17T02:40:18;16.00;99.90
12568;DHT22;6349;50.904;6.136;2022-07-17T02:42:28;16.00;99.90
12568;DHT22;6349;50.904;6.136;2022-07-17T02:44:28;16.00;99.90
12568;DHT22;6349;50.904;6.136;2022-07-17T02:46:29;16.00;99.90
12568;DHT22;6349;50.904;6.136;2022-07-17T02:48:30;16.00;99.90
12568;DHT22;6349;50.904;6.136;2022-07-17T02:50:31;15.90;99.90
12568;DHT22;6349;50.904;6.136;2022-07-17T02:52:31;15.90;99.90
12568;DHT22;6349;50.904;6.136;2022-07-17T02:54:32;15.80;99.90
12568;DHT22;6349;50.904;6.136;2022-07-17T02:56:33;15.80;99.90
12568;DHT22;6349;50.904;6.136;2022-07-17T02:58:33;15.80;99.90
12568;DHT22;6349;50.904;6.136;2022-07-17T03:00:34;15.80;99.90
12568;DHT22;6349;50.904;6.136;2022-07-17T03:02:34;15.80;99.90
12568;DHT22;6349;50.904;6.136;2022-07-17T03:04:35;15.80;99.90
12568;DHT22;6349;50.904;6.136;2022-07-17T03:06:35;15.70;99.90
12568;DHT22;6349;50.904;6.136;2022-07-17T03:08:36;15.70;99.90
12568;DHT22;6349;50.904;6.136;2022-07-17T03:10:37;15.70;99.90
12568;DHT22;6349;50.904;6.136;2022-07-17T03:12:38;15.70;99.90
12568;DHT22;6349;50.904;6.136;2022-07-17T03:14:39;15.70;99.90
12568;DHT22;6349;50.904;6.136;2022-07-17T03:16:39;15.60;99.90
12568;DHT22;6349;50.904;6.136;2022-07-17T03:18:40;15.70;99.90
12568;DHT22;6349;50.904;6.136;2022-07-17T03:20:40;15.60;99.90
12568;DHT22;6349;50.904;6.136;2022-07-17T03:22:41;15.50;99.90
12568;DHT22;6349;50.904;6.136;2022-07-17T03:24:41;15.50;99.90
12568;DHT22;6349;50.904;6.136;2022-07-17T03:26:42;15.50;99.90
12568;DHT22;6349;50.904;6.136;2022-07-17T03:28:43;15.40;99.90
12568;DHT22;6349;50.904;6.136;2022-07-17T03:30:43;15.40;99.90
12568;DHT22;6349;50.904;6.136;2022-07-17T03:32:44;15.40;99.90
12568;DHT22;6349;50.904;6.136;2022-07-17T03:34:44;15.40;99.90
12568;DHT22;6349;50.904;6.136;2022-07-17T03:36:45;15.30;99.90
12568;DHT22;6349;50.904;6.136;2022-07-17T03:38:46;15.40;99.90
12568;DHT22;6349;50.904;6.136;2022-07-17T03:40:46;15.40;99.90
12568;DHT22;6349;50.904;6.136;2022-07-17T03:42:47;15.30;99.90
12568;DHT22;6349;50.904;6.136;2022-07-17T03:44:47;15.40;99.90
12568;DHT22;6349;50.904;6.136;2022-07-17T03:46:49;15.30;99.90
12568;DHT22;6349;50.904;6.136;2022-07-17T03:48:50;15.30;99.90
12568;DHT22;6349;50.904;6.136;2022-07-17T03:50:50;15.30;99.90
12568;DHT22;6349;50.904;6.136;2022-07-17T03:52:51;15.30;99.90
12568;DHT22;6349;50.904;6.136;2022-07-17T03:54:51;15.30;99.90
12568;DHT22;6349;50.904;6.136;2022-07-17T03:56:52;15.20;99.90
12568;DHT22;6349;50.904;6.136;2022-07-17T03:58:53;15.20;99.90
12568;DHT22;6349;50.904;6.136;2022-07-17T04:00:53;15.20;99.90
12568;DHT22;6349;50.904;6.136;2022-07-17T04:02:55;15.20;99.90
12568;DHT22;6349;50.904;6.136;2022-07-17T04:04:55;15.30;99.90
12568;DHT22;6349;50.904;6.136;2022-07-17T04:06:56;15.20;99.90
12568;DHT22;6349;50.904;6.136;2022-07-17T04:08:56;15.20;99.90
12568;DHT22;6349;50.904;6.136;2022-07-17T04:10:57;15.20;99.90
12568;DHT22;6349;50.904;6.136;2022-07-17T04:12:58;15.20;99.90
12568;DHT22;6349;50.904;6.136;2022-07-17T04:14:59;15.20;99.90
12568;DHT22;6349;50.904;6.136;2022-07-17T04:16:59;15.20;99.90
12568;DHT22;6349;50.904;6.136;2022-07-17T04:19:00;15.20;99.90
12568;DHT22;6349;50.904;6.136;2022-07-17T04:21:03;15.10;99.90
12568;DHT22;6349;50.904;6.136;2022-07-17T04:23:04;15.10;99.90
12568;DHT22;6349;50.904;6.136;2022-07-17T04:25:05;15.10;99.90
12568;DHT22;6349;50.904;6.136;2022-07-17T04:27:07;15.10;99.90
12568;DHT22;6349;50.904;6.136;2022-07-17T04:29:07;15.10;99.90
12568;DHT22;6349;50.904;6.136;2022-07-17T04:31:08;15.10;99.90
12568;DHT22;6349;50.904;6.136;2022-07-17T04:33:09;15.10;99.90
12568;DHT22;6349;50.904;6.136;2022-07-17T04:35:10;15.10;99.90
12568;DHT22;6349;50.904;6.136;2022-07-17T04:37:11;15.20;99.90
12568;DHT22;6349;50.904;6.136;2022-07-17T04:39:11;15.10;99.90
12568;DHT22;6349;50.904;6.136;2022-07-17T04:41:12;15.10;99.90
12568;DHT22;6349;50.904;6.136;2022-07-17T04:43:12;15.20;99.90
12568;DHT22;6349;50.904;6.136;2022-07-17T04:45:13;15.10;99.90
12568;DHT22;6349;50.904;6.136;2022-07-17T04:47:14;15.10;99.90
12568;DHT22;6349;50.904;6.136;2022-07-17T04:49:15;15.10;99.90
12568;DHT22;6349;50.904;6.136;2022-07-17T04:51:15;15.10;99.90
12568;DHT22;6349;50.904;6.136;2022-07-17T04:53:16;15.10;99.90
12568;DHT22;6349;50.904;6.136;2022-07-17T04:55:17;15.00;99.90
12568;DHT22;6349;50.904;6.136;2022-07-17T04:57:18;15.00;99.90
12568;DHT22;6349;50.904;6.136;2022-07-17T04:59:18;15.00;99.90
12568;DHT22;6349;50.904;6.136;2022-07-17T05:01:19;15.10;99.90
12568;DHT22;6349;50.904;6.136;2022-07-17T05:03:20;15.00;99.90
12568;DHT22;6349;50.904;6.136;2022-07-17T05:05:21;15.00;99.90
12568;DHT22;6349;50.904;6.136;2022-07-17T05:07:21;15.00;99.90
12568;DHT22;6349;50.904;6.136;2022-07-17T05:09:22;15.10;99.90
12568;DHT22;6349;50.904;6.136;2022-07-17T05:11:23;15.10;99.90
12568;DHT22;6349;50.904;6.136;2022-07-17T05:13:23;15.00;99.90
12568;DHT22;6349;50.904;6.136;2022-07-17T05:15:24;15.10;99.90
12568;DHT22;6349;50.904;6.136;2022-07-17T05:17:25;15.10;99.90
12568;DHT22;6349;50.904;6.136;2022-07-17T05:19:25;15.20;99.90
12568;DHT22;6349;50.904;6.136;2022-07-17T05:21:26;15.20;99.90
12568;DHT22;6349;50.904;6.136;2022-07-17T05:23:26;15.20;99.90
12568;DHT22;6349;50.904;6.136;2022-07-17T05:25:27;15.20;99.90
12568;DHT22;6349;50.904;6.136;2022-07-17T05:27:27;15.20;99.90
12568;DHT22;6349;50.904;6.136;2022-07-17T05:29:29;15.30;99.90
12568;DHT22;6349;50.904;6.136;2022-07-17T05:31:29;15.20;99.90
12568;DHT22;6349;50.904;6.136;2022-07-17T05:33:30;15.20;99.90
12568;DHT22;6349;50.904;6.136;2022-07-17T05:35:31;15.30;99.90
12568;DHT22;6349;50.904;6.136;2022-07-17T05:37:32;15.30;99.90
12568;DHT22;6349;50.904;6.136;2022-07-17T05:39:33;15.40;99.90
12568;DHT22;6349;50.904;6.136;2022-07-17T05:41:34;15.40;99.90
12568;DHT22;6349;50.904;6.136;2022-07-17T05:43:35;15.50;99.90
12568;DHT22;6349;50.904;6.136;2022-07-17T05:45:35;15.50;99.90
12568;DHT22;6349;50.904;6.136;2022-07-17T05:47:36;15.50;99.90
12568;DHT22;6349;50.904;6.136;2022-07-17T05:49:37;15.60;99.90
12568;DHT22;6349;50.904;6.136;2022-07-17T05:51:37;15.60;99.90
12568;DHT22;6349;50.904;6.136;2022-07-17T05:53:38;15.70;99.90
12568;DHT22;6349;50.904;6.136;2022-07-17T05:55:38;15.70;99.90
12568;DHT22;6349;50.904;6.136;2022-07-17T05:57:39;15.80;99.90
12568;DHT22;6349;50.904;6.136;2022-07-17T05:59:39;15.80;99.90
12568;DHT22;6349;50.904;6.136;2022-07-17T06:01:40;15.80;99.90
12568;DHT22;6349;50.904;6.136;2022-07-17T06:03:41;16.00;99.90
12568;DHT22;6349;50.904;6.136;2022-07-17T06:05:42;15.90;99.90
12568;DHT22;6349;50.904;6.136;2022-07-17T06:07:43;15.90;99.90
12568;DHT22;6349;50.904;6.136;2022-07-17T06:09:43;16.00;99.90
12568;DHT22;6349;50.904;6.136;2022-07-17T06:11:44;16.10;99.90
12568;DHT22;6349;50.904;6.136;2022-07-17T06:13:44;16.00;99.90
12568;DHT22;6349;50.904;6.136;2022-07-17T06:15:45;16.00;99.90
12568;DHT22;6349;50.904;6.136;2022-07-17T06:17:46;16.20;99.90
12568;DHT22;6349;50.904;6.136;2022-07-17T06:19:47;16.10;99.90
12568;DHT22;6349;50.904;6.136;2022-07-17T06:21:52;16.20;99.90
12568;DHT22;6349;50.904;6.136;2022-07-17T06:23:52;16.30;99.90
12568;DHT22;6349;50.904;6.136;2022-07-17T06:25:53;16.40;99.90
12568;DHT22;6349;50.904;6.136;2022-07-17T06:27:53;16.50;99.90
12568;DHT22;6349;50.904;6.136;2022-07-17T06:29:54;16.50;99.90
12568;DHT22;6349;50.904;6.136;2022-07-17T06:31:54;16.60;99.90
12568;DHT22;6349;50.904;6.136;2022-07-17T06:33:55;16.60;99.90
12568;DHT22;6349;50.904;6.136;2022-07-17T06:35:56;16.60;99.90
12568;DHT22;6349;50.904;6.136;2022-07-17T06:37:57;16.60;99.90
12568;DHT22;6349;50.904;6.136;2022-07-17T06:39:57;16.70;99.90
12568;DHT22;6349;50.904;6.136;2022-07-17T06:41:58;16.70;99.90
12568;DHT22;6349;50.904;6.136;2022-07-17T06:44:00;16.80;99.90
12568;DHT22;6349;50.904;6.136;2022-07-17T06:46:00;16.90;99.90
12568;DHT22;6349;50.904;6.136;2022-07-17T06:48:01;17.10;99.90
12568;DHT22;6349;50.904;6.136;2022-07-17T06:50:02;17.00;99.90
12568;DHT22;6349;50.904;6.136;2022-07-17T06:52:03;17.10;99.90
12568;DHT22;6349;50.904;6.136;2022-07-17T06:54:03;17.20;99.90
12568;DHT22;6349;50.904;6.136;2022-07-17T06:56:04;17.20;99.90
12568;DHT22;6349;50.904;6.136;2022-07-17T06:58:05;17.30;99.90
12568;DHT22;6349;50.904;6.136;2022-07-17T07:00:06;17.40;99.90
12568;DHT22;6349;50.904;6.136;2022-07-17T07:02:09;17.50;99.90
12568;DHT22;6349;50.904;6.136;2022-07-17T07:04:09;17.60;99.90
12568;DHT22;6349;50.904;6.136;2022-07-17T07:06:10;17.60;99.90
12568;DHT22;6349;50.904;6.136;2022-07-17T07:08:10;17.70;99.90
12568;DHT22;6349;50.904;6.136;2022-07-17T07:10:11;17.70;99.90
12568;DHT22;6349;50.904;6.136;2022-07-17T07:12:12;17.80;99.90
12568;DHT22;6349;50.904;6.136;2022-07-17T07:14:12;17.90;99.90
12568;DHT22;6349;50.904;6.136;2022-07-17T07:16:13;17.90;99.90
12568;DHT22;6349;50.904;6.136;2022-07-17T07:18:14;17.90;99.90
12568;DHT22;6349;50.904;6.136;2022-07-17T07:20:15;18.10;99.90
12568;DHT22;6349;50.904;6.136;2022-07-17T07:22:15;18.10;99.90
12568;DHT22;6349;50.904;6.136;2022-07-17T07:24:16;18.20;99.90
12568;DHT22;6349;50.904;6.136;2022-07-17T07:26:17;18.30;99.90
12568;DHT22;6349;50.904;6.136;2022-07-17T07:28:17;18.30;99.90
12568;DHT22;6349;50.904;6.136;2022-07-17T07:30:18;18.40;99.90
12568;DHT22;6349;50.904;6.136;2022-07-17T07:32:19;18.50;99.90
12568;DHT22;6349;50.904;6.136;2022-07-17T07:34:19;18.50;99.90
12568;DHT22;6349;50.904;6.136;2022-07-17T07:36:20;18.50;99.90
12568;DHT22;6349;50.904;6.136;2022-07-17T07:38:21;18.50;99.90
12568;DHT22;6349;50.904;6.136;2022-07-17T07:40:21;18.50;99.90
12568;DHT22;6349;50.904;6.136;2022-07-17T07:42:22;18.60;99.90
12568;DHT22;6349;50.904;6.136;2022-07-17T07:44:22;18.60;99.90
12568;DHT22;6349;50.904;6.136;2022-07-17T07:46:23;18.70;99.90
12568;DHT22;6349;50.904;6.136;2022-07-17T07:48:24;18.70;99.90
12568;DHT22;6349;50.904;6.136;2022-07-17T07:50:25;18.70;99.90
12568;DHT22;6349;50.904;6.136;2022-07-17T07:52:26;18.70;99.90
12568;DHT22;6349;50.904;6.136;2022-07-17T07:54:27;18.70;99.90
12568;DHT22;6349;50.904;6.136;2022-07-17T07:56:27;18.80;99.90
12568;DHT22;6349;50.904;6.136;2022-07-17T07:58:28;18.90;99.90
12568;DHT22;6349;50.904;6.136;2022-07-17T08:00:29;18.90;99.90
12568;DHT22;6349;50.904;6.136;2022-07-17T08:02:29;18.90;99.90
12568;DHT22;6349;50.904;6.136;2022-07-17T08:04:30;18.90;99.90
12568;DHT22;6349;50.904;6.136;2022-07-17T08:06:30;19.00;99.90
12568;DHT22;6349;50.904;6.136;2022-07-17T08:08:31;19.00;99.90
12568;DHT22;6349;50.904;6.136;2022-07-17T08:10:32;19.00;99.90
12568;DHT22;6349;50.904;6.136;2022-07-17T08:12:32;19.10;99.90
12568;DHT22;6349;50.904;6.136;2022-07-17T08:14:33;19.20;99.90
12568;DHT22;6349;50.904;6.136;2022-07-17T08:16:34;19.20;99.90
12568;DHT22;6349;50.904;6.136;2022-07-17T08:18:35;19.30;99.90
12568;DHT22;6349;50.904;6.136;2022-07-17T08:20:36;19.30;99.90
12568;DHT22;6349;50.904;6.136;2022-07-17T08:22:37;19.40;99.90
12568;DHT22;6349;50.904;6.136;2022-07-17T08:24:38;19.40;99.90
12568;DHT22;6349;50.904;6.136;2022-07-17T08:26:38;19.40;99.90
12568;DHT22;6349;50.904;6.136;2022-07-17T08:28:39;19.50;99.90
12568;DHT22;6349;50.904;6.136;2022-07-17T08:30:40;19.50;99.90
12568;DHT22;6349;50.904;6.136;2022-07-17T08:32:41;19.50;99.90
12568;DHT22;6349;50.904;6.136;2022-07-17T08:34:42;19.70;99.90
12568;DHT22;6349;50.904;6.136;2022-07-17T08:36:42;19.70;99.90
12568;DHT22;6349;50.904;6.136;2022-07-17T08:38:43;19.70;99.90
12568;DHT22;6349;50.904;6.136;2022-07-17T08:40:43;19.70;99.90
12568;DHT22;6349;50.904;6.136;2022-07-17T08:42:49;19.70;99.90
12568;DHT22;6349;50.904;6.136;2022-07-17T08:44:50;19.80;99.90
12568;DHT22;6349;50.904;6.136;2022-07-17T08:46:50;19.90;99.90
12568;DHT22;6349;50.904;6.136;2022-07-17T08:48:56;20.00;99.90
12568;DHT22;6349;50.904;6.136;2022-07-17T08:50:59;20.10;99.90
12568;DHT22;6349;50.904;6.136;2022-07-17T08:53:01;20.20;99.90
12568;DHT22;6349;50.904;6.136;2022-07-17T08:55:02;20.30;99.90
12568;DHT22;6349;50.904;6.136;2022-07-17T08:57:04;20.40;99.90
12568;DHT22;6349;50.904;6.136;2022-07-17T08:59:04;20.60;99.90
12568;DHT22;6349;50.904;6.136;2022-07-17T09:01:05;20.70;99.90
12568;DHT22;6349;50.904;6.136;2022-07-17T09:03:07;20.80;99.90
12568;DHT22;6349;50.904;6.136;2022-07-17T09:05:08;20.90;99.90
12568;DHT22;6349;50.904;6.136;2022-07-17T09:07:08;20.90;99.90
12568;DHT22;6349;50.904;6.136;2022-07-17T09:09:11;20.90;99.90
12568;DHT22;6349;50.904;6.136;2022-07-17T09:11:12;20.90;99.90
12568;DHT22;6349;50.904;6.136;2022-07-17T09:15:27;20.80;99.90
12568;DHT22;6349;50.904;6.136;2022-07-17T09:17:28;20.80;99.90
12568;DHT22;6349;50.904;6.136;2022-07-17T09:19:40;20.80;99.90
12568;DHT22;6349;50.904;6.136;2022-07-17T09:21:40;20.80;99.90
12568;DHT22;6349;50.904;6.136;2022-07-17T09:23:41;20.80;99.90
12568;DHT22;6349;50.904;6.136;2022-07-17T09:25:43;20.90;99.90
12568;DHT22;6349;50.904;6.136;2022-07-17T09:27:44;20.90;99.90
12568;DHT22;6349;50.904;6.136;2022-07-17T09:29:51;21.00;99.90
12568;DHT22;6349;50.904;6.136;2022-07-17T09:31:53;21.00;99.90
12568;DHT22;6349;50.904;6.136;2022-07-17T09:33:53;21.00;99.90
12568;DHT22;6349;50.904;6.136;2022-07-17T09:35:56;21.00;99.90
12568;DHT22;6349;50.904;6.136;2022-07-17T09:37:57;21.10;99.90
12568;DHT22;6349;50.904;6.136;2022-07-17T09:39:58;21.10;99.90
12568;DHT22;6349;50.904;6.136;2022-07-17T09:41:59;21.10;99.90
12568;DHT22;6349;50.904;6.136;2022-07-17T09:44:00;21.20;99.90
12568;DHT22;6349;50.904;6.136;2022-07-17T09:46:01;21.30;99.90
12568;DHT22;6349;50.904;6.136;2022-07-17T09:48:03;21.40;99.90
12568;DHT22;6349;50.904;6.136;2022-07-17T09:50:07;21.40;99.90
12568;DHT22;6349;50.904;6.136;2022-07-17T09:52:08;21.60;99.90
12568;DHT22;6349;50.904;6.136;2022-07-17T09:54:10;21.70;99.90
12568;DHT22;6349;50.904;6.136;2022-07-17T09:56:15;21.80;99.90
12568;DHT22;6349;50.904;6.136;2022-07-17T09:58:19;21.80;99.90
12568;DHT22;6349;50.904;6.136;2022-07-17T10:00:21;21.90;99.90
12568;DHT22;6349;50.904;6.136;2022-07-17T10:02:23;21.90;99.90
12568;DHT22;6349;50.904;6.136;2022-07-17T10:04:25;21.80;99.90
12568;DHT22;6349;50.904;6.136;2022-07-17T10:06:27;21.90;99.90
12568;DHT22;6349;50.904;6.136;2022-07-17T10:08:30;21.90;99.90
12568;DHT22;6349;50.904;6.136;2022-07-17T10:10:31;22.00;99.90
12568;DHT22;6349;50.904;6.136;2022-07-17T10:12:32;22.10;99.90
12568;DHT22;6349;50.904;6.136;2022-07-17T10:14:33;22.10;99.90
12568;DHT22;6349;50.904;6.136;2022-07-17T10:16:35;22.10;99.90
12568;DHT22;6349;50.904;6.136;2022-07-17T10:18:42;22.20;99.90
12568;DHT22;6349;50.904;6.136;2022-07-17T10:20:43;22.30;99.90
12568;DHT22;6349;50.904;6.136;2022-07-17T10:22:45;22.40;99.90
12568;DHT22;6349;50.904;6.136;2022-07-17T10:26:52;22.50;99.90
12568;DHT22;6349;50.904;6.136;2022-07-17T10:28:53;22.60;99.90
12568;DHT22;6349;50.904;6.136;2022-07-17T10:30:54;22.60;99.90
12568;DHT22;6349;50.904;6.136;2022-07-17T10:32:59;22.60;99.90
12568;DHT22;6349;50.904;6.136;2022-07-17T10:39:21;22.70;99.90
12568;DHT22;6349;50.904;6.136;2022-07-17T10:41:21;22.70;99.90
12568;DHT22;6349;50.904;6.136;2022-07-17T10:43:22;22.70;99.90
12568;DHT22;6349;50.904;6.136;2022-07-17T10:45:34;22.80;99.90
12568;DHT22;6349;50.904;6.136;2022-07-17T10:47:47;22.80;99.90
12568;DHT22;6349;50.904;6.136;2022-07-17T10:49:48;22.80;99.90
12568;DHT22;6349;50.904;6.136;2022-07-17T10:51:51;23.00;99.90
12568;DHT22;6349;50.904;6.136;2022-07-17T10:53:56;23.00;99.90
12568;DHT22;6349;50.904;6.136;2022-07-17T10:56:04;23.00;99.90
12568;DHT22;6349;50.904;6.136;2022-07-17T10:58:30;23.10;99.90
12568;DHT22;6349;50.904;6.136;2022-07-17T11:00:32;23.10;99.90
12568;DHT22;6349;50.904;6.136;2022-07-17T11:02:33;23.30;99.90
12568;DHT22;6349;50.904;6.136;2022-07-17T11:04:37;23.40;99.90
12568;DHT22;6349;50.904;6.136;2022-07-17T11:06:40;23.40;99.90
12568;DHT22;6349;50.904;6.136;2022-07-17T11:08:48;23.40;99.90
12568;DHT22;6349;50.904;6.136;2022-07-17T11:10:51;23.60;99.90
12568;DHT22;6349;50.904;6.136;2022-07-17T11:12:53;23.60;99.90
12568;DHT22;6349;50.904;6.136;2022-07-17T11:15:01;23.70;99.90
12568;DHT22;6349;50.904;6.136;2022-07-17T11:17:02;23.80;99.90
12568;DHT22;6349;50.904;6.136;2022-07-17T11:19:04;23.90;99.90
12568;DHT22;6349;50.904;6.136;2022-07-17T11:21:05;24.00;99.90
12568;DHT22;6349;50.904;6.136;2022-07-17T11:23:06;24.00;99.90
12568;DHT22;6349;50.904;6.136;2022-07-17T11:25:07;24.00;99.90
12568;DHT22;6349;50.904;6.136;2022-07-17T11:27:12;24.10;99.90
12568;DHT22;6349;50.904;6.136;2022-07-17T11:29:18;24.00;99.90
12568;DHT22;6349;50.904;6.136;2022-07-17T11:31:22;24.00;99.90
12568;DHT22;6349;50.904;6.136;2022-07-17T11:33:23;24.00;99.90
12568;DHT22;6349;50.904;6.136;2022-07-17T11:35:24;24.10;99.90
12568;DHT22;6349;50.904;6.136;2022-07-17T11:37:29;24.10;99.90
12568;DHT22;6349;50.904;6.136;2022-07-17T11:41:44;24.30;99.90
12568;DHT22;6349;50.904;6.136;2022-07-17T11:43:46;24.30;99.90
12568;DHT22;6349;50.904;6.136;2022-07-17T11:45:48;24.40;99.90
12568;DHT22;6349;50.904;6.136;2022-07-17T11:47:49;24.50;99.90
12568;DHT22;6349;50.904;6.136;2022-07-17T11:49:50;24.50;99.90
12568;DHT22;6349;50.904;6.136;2022-07-17T11:51:51;24.60;99.90
12568;DHT22;6349;50.904;6.136;2022-07-17T11:53:51;24.70;99.90
12568;DHT22;6349;50.904;6.136;2022-07-17T11:55:53;24.70;99.90
12568;DHT22;6349;50.904;6.136;2022-07-17T11:57:56;24.70;99.90
12568;DHT22;6349;50.904;6.136;2022-07-17T12:00:06;24.70;99.90
12568;DHT22;6349;50.904;6.136;2022-07-17T12:02:19;24.90;99.90
12568;DHT22;6349;50.904;6.136;2022-07-17T12:04:21;24.80;99.90
12568;DHT22;6349;50.904;6.136;2022-07-17T12:06:25;24.90;99.90
12568;DHT22;6349;50.904;6.136;2022-07-17T12:08:26;25.00;99.90
12568;DHT22;6349;50.904;6.136;2022-07-17T12:10:30;25.00;99.90
12568;DHT22;6349;50.904;6.136;2022-07-17T12:12:31;25.10;99.90
12568;DHT22;6349;50.904;6.136;2022-07-17T12:14:32;25.20;99.90
12568;DHT22;6349;50.904;6.136;2022-07-17T12:16:35;25.30;99.90
12568;DHT22;6349;50.904;6.136;2022-07-17T12:18:35;25.40;99.90
12568;DHT22;6349;50.904;6.136;2022-07-17T12:20:47;25.40;99.90
12568;DHT22;6349;50.904;6.136;2022-07-17T12:22:49;25.40;99.90
12568;DHT22;6349;50.904;6.136;2022-07-17T12:24:50;25.40;99.90
12568;DHT22;6349;50.904;6.136;2022-07-17T12:26:52;25.50;99.90
12568;DHT22;6349;50.904;6.136;2022-07-17T12:28:52;25.50;99.90
12568;DHT22;6349;50.904;6.136;2022-07-17T12:30:53;25.50;99.90
12568;DHT22;6349;50.904;6.136;2022-07-17T12:32:54;25.60;99.90
12568;DHT22;6349;50.904;6.136;2022-07-17T12:34:54;25.70;99.90
12568;DHT22;6349;50.904;6.136;2022-07-17T12:36:55;25.70;99.90
12568;DHT22;6349;50.904;6.136;2022-07-17T12:38:56;25.70;99.90
12568;DHT22;6349;50.904;6.136;2022-07-17T12:40:57;25.80;99.90
12568;DHT22;6349;50.904;6.136;2022-07-17T12:42:57;25.80;99.90
12568;DHT22;6349;50.904;6.136;2022-07-17T12:44:58;25.80;99.90
12568;DHT22;6349;50.904;6.136;2022-07-17T12:46:59;25.90;99.90
12568;DHT22;6349;50.904;6.136;2022-07-17T12:48:59;25.80;99.90
12568;DHT22;6349;50.904;6.136;2022-07-17T12:51:00;25.90;99.90
12568;DHT22;6349;50.904;6.136;2022-07-17T12:53:01;25.90;99.90
12568;DHT22;6349;50.904;6.136;2022-07-17T12:55:02;25.90;99.90
12568;DHT22;6349;50.904;6.136;2022-07-17T12:57:02;26.10;99.90
12568;DHT22;6349;50.904;6.136;2022-07-17T12:59:03;26.10;99.90
12568;DHT22;6349;50.904;6.136;2022-07-17T13:01:04;26.20;99.90
12568;DHT22;6349;50.904;6.136;2022-07-17T13:03:06;26.10;99.90
12568;DHT22;6349;50.904;6.136;2022-07-17T13:05:07;26.30;99.90
12568;DHT22;6349;50.904;6.136;2022-07-17T13:07:08;26.40;99.90
12568;DHT22;6349;50.904;6.136;2022-07-17T13:09:08;26.50;99.90